Main page
METAR-TAF:

METAR-TAF

Airports :

Srinagar International Airport

Srinagar, India

latitude: 33-59-14N, longitude: 074-46-27E, elevation: 1655 m

METAR: missing

Time: 12:24 (06:54 UTC)

Forecast

The report was made 3 hours and 24 minutes ago, at 03:30 UTC
Forecast valid from 30 at 06 UTC to 30 at 18 UTC
Wind 2 kt from variable directions
Visibility: 5000 m
Scattered clouds at a height of 2000 ft
Scattered clouds at a height of 3000 ft
Broken clouds at a height of 8000 ft
light rain, mist
Becoming
between and UTC
From UTC
Scattered clouds at a height of 2000 ft
Few clouds at a height of 3000 ft, Cumulonimbus.
Broken clouds at a height of 9000 ft
Temporary
from 30 at 13 UTC to 30 at 15 UTC
Wind 5 kt from the South/Southwest
Visibility: 5000 m
thunderstorm, rain, mist

TAF: VISR 300330Z 3006/3018 VRB02KT 5000 -RABR SCT020 SCT030 BKN080 BECMG FM 300900Z SCT020 FEW030CB BKN090 TEMPO 3013/3015 21005KT 5000 TSRABR

Weather observations and forecasts of more than 4000 airports (METAR and TAF reports).

The available stations are represented by yellow and red dots on the map.

Hover mouse over dot to see the name of the station.

Then click to see weather observations and forecasts.

To change the map : click on the green buttons with a black cross to zoom in, on the green button with a dash to zoom out, or on the green arrows for adjacent maps.


METAR-TAF: